sensor_id;sensor_type;location;lat;lon;timestamp;pressure;altitude;pressure_sealevel;temperature;humidity
46506;BME280;32220;49.808;9.968;2023-07-29T00:02:21;98356.16;;;19.88;88.70
46506;BME280;32220;49.808;9.968;2023-07-29T00:04:48;98345.91;;;19.84;89.12
46506;BME280;32220;49.808;9.968;2023-07-29T00:07:17;98345.56;;;19.79;89.51
46506;BME280;32220;49.808;9.968;2023-07-29T00:09:45;98351.28;;;19.76;90.29
46506;BME280;32220;49.808;9.968;2023-07-29T00:12:16;98347.09;;;19.73;90.31
46506;BME280;32220;49.808;9.968;2023-07-29T00:14:46;98348.25;;;19.70;91.02
46506;BME280;32220;49.808;9.968;2023-07-29T00:17:14;98345.56;;;19.70;91.28
46506;BME280;32220;49.808;9.968;2023-07-29T00:19:41;98347.41;;;19.70;91.30
46506;BME280;32220;49.808;9.968;2023-07-29T00:22:09;98349.56;;;19.66;91.33
46506;BME280;32220;49.808;9.968;2023-07-29T00:24:39;98334.28;;;19.59;91.14
46506;BME280;32220;49.808;9.968;2023-07-29T00:27:06;98343.88;;;19.61;91.19
46506;BME280;32220;49.808;9.968;2023-07-29T00:29:34;98347.25;;;19.63;91.45
46506;BME280;32220;49.808;9.968;2023-07-29T00:32:02;98355.31;;;19.63;91.62
46506;BME280;32220;49.808;9.968;2023-07-29T00:34:29;98353.94;;;19.59;91.62
46506;BME280;32220;49.808;9.968;2023-07-29T00:36:57;98356.63;;;19.59;91.51
46506;BME280;32220;49.808;9.968;2023-07-29T00:39:24;98351.25;;;19.59;91.43
46506;BME280;32220;49.808;9.968;2023-07-29T00:41:54;98348.72;;;19.58;91.66
46506;BME280;32220;49.808;9.968;2023-07-29T00:44:22;98347.88;;;19.57;91.34
46506;BME280;32220;49.808;9.968;2023-07-29T00:46:50;98325.00;;;19.45;91.34
46506;BME280;32220;49.808;9.968;2023-07-29T00:49:20;98351.09;;;19.53;91.61
46506;BME280;32220;49.808;9.968;2023-07-29T00:51:49;98345.03;;;19.51;91.29
46506;BME280;32220;49.808;9.968;2023-07-29T00:54:17;98333.91;;;19.46;90.90
46506;BME280;32220;49.808;9.968;2023-07-29T00:56:45;98330.53;;;19.44;91.17
46506;BME280;32220;49.808;9.968;2023-07-29T00:59:14;98314.22;;;19.29;90.80
46506;BME280;32220;49.808;9.968;2023-07-29T01:01:42;98351.16;;;19.43;90.98
46506;BME280;32220;49.808;9.968;2023-07-29T01:04:10;98356.53;;;19.43;91.10
46506;BME280;32220;49.808;9.968;2023-07-29T01:06:46;98354.88;;;19.42;91.77
46506;BME280;32220;49.808;9.968;2023-07-29T01:09:30;98341.63;;;19.41;91.54
46506;BME280;32220;49.808;9.968;2023-07-29T01:12:08;98323.09;;;19.29;91.55
46506;BME280;32220;49.808;9.968;2023-07-29T01:14:44;98325.63;;;19.31;92.54
46506;BME280;32220;49.808;9.968;2023-07-29T01:17:19;98330.03;;;19.40;92.12
46506;BME280;32220;49.808;9.968;2023-07-29T01:19:59;98327.50;;;19.38;92.64
46506;BME280;32220;49.808;9.968;2023-07-29T01:22:27;98326.00;;;19.44;92.84
46506;BME280;32220;49.808;9.968;2023-07-29T01:24:59;98316.63;;;19.40;92.30
46506;BME280;32220;49.808;9.968;2023-07-29T01:27:27;98322.88;;;19.49;92.76
46506;BME280;32220;49.808;9.968;2023-07-29T01:29:56;98326.72;;;19.54;92.91
46506;BME280;32220;49.808;9.968;2023-07-29T01:32:33;98315.97;;;19.54;92.68
46506;BME280;32220;49.808;9.968;2023-07-29T01:35:13;98306.44;;;19.52;92.73
46506;BME280;32220;49.808;9.968;2023-07-29T01:37:48;98314.66;;;19.50;93.00
46506;BME280;32220;49.808;9.968;2023-07-29T01:40:18;98307.03;;;19.46;92.47
46506;BME280;32220;49.808;9.968;2023-07-29T01:42:47;98294.09;;;19.33;92.14
46506;BME280;32220;49.808;9.968;2023-07-29T01:45:14;98313.94;;;19.40;92.38
46506;BME280;32220;49.808;9.968;2023-07-29T01:47:42;98305.16;;;19.30;92.60
46506;BME280;32220;49.808;9.968;2023-07-29T01:50:11;98304.84;;;19.33;92.70
46506;BME280;32220;49.808;9.968;2023-07-29T01:52:38;98295.41;;;19.21;93.35
46506;BME280;32220;49.808;9.968;2023-07-29T01:55:07;98300.13;;;19.27;93.16
46506;BME280;32220;49.808;9.968;2023-07-29T01:57:36;98295.09;;;19.24;92.93
46506;BME280;32220;49.808;9.968;2023-07-29T02:00:05;98295.09;;;19.24;92.97
46506;BME280;32220;49.808;9.968;2023-07-29T02:02:41;98303.13;;;19.24;92.89
46506;BME280;32220;49.808;9.968;2023-07-29T02:05:09;98301.47;;;19.23;92.34
46506;BME280;32220;49.808;9.968;2023-07-29T02:07:36;98293.56;;;19.21;92.70
46506;BME280;32220;49.808;9.968;2023-07-29T02:10:05;98302.63;;;19.20;92.60
46506;BME280;32220;49.808;9.968;2023-07-29T02:12:33;98291.88;;;19.20;92.90
46506;BME280;32220;49.808;9.968;2023-07-29T02:15:04;98299.47;;;19.25;92.57
46506;BME280;32220;49.808;9.968;2023-07-29T02:17:32;98300.78;;;19.29;92.38
46506;BME280;32220;49.808;9.968;2023-07-29T02:19:59;98292.41;;;19.32;91.94
46506;BME280;32220;49.808;9.968;2023-07-29T02:22:27;98283.03;;;19.36;91.33
46506;BME280;32220;49.808;9.968;2023-07-29T02:24:55;98286.41;;;19.38;91.26
46506;BME280;32220;49.808;9.968;2023-07-29T02:27:22;98294.28;;;19.40;90.89
46506;BME280;32220;49.808;9.968;2023-07-29T02:29:52;98285.41;;;19.39;91.97
46506;BME280;32220;49.808;9.968;2023-07-29T02:32:21;98260.50;;;19.29;91.69
46506;BME280;32220;49.808;9.968;2023-07-29T02:34:49;98266.25;;;19.34;92.21
46506;BME280;32220;49.808;9.968;2023-07-29T02:37:16;98277.66;;;19.44;93.14
46506;BME280;32220;49.808;9.968;2023-07-29T02:39:44;98273.13;;;19.45;93.10
46506;BME280;32220;49.808;9.968;2023-07-29T02:42:12;98271.97;;;19.47;93.14
46506;BME280;32220;49.808;9.968;2023-07-29T02:44:40;98266.44;;;19.41;92.24
46506;BME280;32220;49.808;9.968;2023-07-29T02:47:07;98278.72;;;19.51;92.26
46506;BME280;32220;49.808;9.968;2023-07-29T02:49:36;98262.22;;;19.46;92.01
46506;BME280;32220;49.808;9.968;2023-07-29T02:52:04;98268.81;;;19.52;91.54
46506;BME280;32220;49.808;9.968;2023-07-29T02:54:32;98278.56;;;19.61;90.97
46506;BME280;32220;49.808;9.968;2023-07-29T02:57:00;98271.34;;;19.61;91.05
46506;BME280;32220;49.808;9.968;2023-07-29T02:59:28;98272.88;;;19.64;90.90
46506;BME280;32220;49.808;9.968;2023-07-29T03:01:57;98268.97;;;19.66;90.76
46506;BME280;32220;49.808;9.968;2023-07-29T03:04:25;98265.97;;;19.69;90.46
46506;BME280;32220;49.808;9.968;2023-07-29T03:06:54;98243.47;;;19.62;90.43
46506;BME280;32220;49.808;9.968;2023-07-29T03:09:22;98258.25;;;19.75;90.35
46506;BME280;32220;49.808;9.968;2023-07-29T03:11:50;98253.56;;;19.77;90.09
46506;BME280;32220;49.808;9.968;2023-07-29T03:14:18;98266.31;;;19.83;89.65
46506;BME280;32220;49.808;9.968;2023-07-29T03:16:46;98288.16;;;19.88;89.57
46506;BME280;32220;49.808;9.968;2023-07-29T03:19:15;98310.97;;;19.84;89.60
46506;BME280;32220;49.808;9.968;2023-07-29T03:21:43;98285.56;;;19.46;91.14
46506;BME280;32220;49.808;9.968;2023-07-29T03:24:13;98275.28;;;19.25;96.16
46506;BME280;32220;49.808;9.968;2023-07-29T03:26:41;98262.03;;;19.15;96.25
46506;BME280;32220;49.808;9.968;2023-07-29T03:29:08;98267.19;;;19.17;96.13
46506;BME280;32220;49.808;9.968;2023-07-29T03:31:36;98272.09;;;19.21;95.65
46506;BME280;32220;49.808;9.968;2023-07-29T03:34:04;98273.59;;;19.24;95.53
46506;BME280;32220;49.808;9.968;2023-07-29T03:36:33;98239.69;;;19.07;95.09
46506;BME280;32220;49.808;9.968;2023-07-29T03:39:00;98270.94;;;19.24;95.32
46506;BME280;32220;49.808;9.968;2023-07-29T03:41:31;98257.50;;;19.24;94.92
46506;BME280;32220;49.808;9.968;2023-07-29T03:43:59;98257.34;;;19.25;95.07
46506;BME280;32220;49.808;9.968;2023-07-29T03:46:27;98251.13;;;19.25;95.07
46506;BME280;32220;49.808;9.968;2023-07-29T03:48:54;98245.09;;;19.23;95.19
46506;BME280;32220;49.808;9.968;2023-07-29T03:51:23;98241.72;;;19.21;95.87
46506;BME280;32220;49.808;9.968;2023-07-29T03:53:50;98225.09;;;19.09;96.51
46506;BME280;32220;49.808;9.968;2023-07-29T03:56:18;98237.88;;;19.15;97.27
46506;BME280;32220;49.808;9.968;2023-07-29T03:58:47;98239.88;;;19.13;97.37
46506;BME280;32220;49.808;9.968;2023-07-29T04:01:15;98223.09;;;19.11;97.41
46506;BME280;32220;49.808;9.968;2023-07-29T04:03:44;98220.25;;;19.13;97.55
46506;BME280;32220;49.808;9.968;2023-07-29T04:06:12;98218.25;;;19.15;97.40
46506;BME280;32220;49.808;9.968;2023-07-29T04:08:40;98223.25;;;19.18;97.53
46506;BME280;32220;49.808;9.968;2023-07-29T04:11:08;98229.31;;;19.20;97.59
46506;BME280;32220;49.808;9.968;2023-07-29T04:13:36;98214.19;;;19.19;98.60
46506;BME280;32220;49.808;9.968;2023-07-29T04:16:06;98209.81;;;19.18;99.10
46506;BME280;32220;49.808;9.968;2023-07-29T04:18:34;98209.81;;;19.18;98.49
46506;BME280;32220;49.808;9.968;2023-07-29T04:21:02;98214.19;;;19.19;98.37
46506;BME280;32220;49.808;9.968;2023-07-29T04:23:29;98223.94;;;19.20;97.80
46506;BME280;32220;49.808;9.968;2023-07-29T04:25:57;98211.19;;;19.22;97.89
46506;BME280;32220;49.808;9.968;2023-07-29T04:28:24;98204.50;;;19.26;97.74
46506;BME280;32220;49.808;9.968;2023-07-29T04:30:52;98200.81;;;19.27;97.69
46506;BME280;32220;49.808;9.968;2023-07-29T04:33:22;98199.59;;;19.29;97.04
46506;BME280;32220;49.808;9.968;2023-07-29T04:35:50;98186.34;;;19.20;96.90
46506;BME280;32220;49.808;9.968;2023-07-29T04:38:18;98193.06;;;19.32;96.85
46506;BME280;32220;49.808;9.968;2023-07-29T04:40:46;98201.97;;;19.32;96.80
46506;BME280;32220;49.808;9.968;2023-07-29T04:43:14;98210.84;;;19.33;97.26
46506;BME280;32220;49.808;9.968;2023-07-29T04:45:42;98213.38;;;19.34;96.86
46506;BME280;32220;49.808;9.968;2023-07-29T04:48:10;98208.53;;;19.38;96.86
46506;BME280;32220;49.808;9.968;2023-07-29T04:50:40;98220.25;;;19.45;96.19
46506;BME280;32220;49.808;9.968;2023-07-29T04:53:07;98214.28;;;19.51;95.92
46506;BME280;32220;49.808;9.968;2023-07-29T04:55:35;98203.69;;;19.58;95.95
46506;BME280;32220;49.808;9.968;2023-07-29T04:58:02;98205.03;;;19.62;95.78
46506;BME280;32220;49.808;9.968;2023-07-29T05:00:30;98200.16;;;19.65;95.72
46506;BME280;32220;49.808;9.968;2023-07-29T05:02:59;98186.88;;;19.72;95.43
46506;BME280;32220;49.808;9.968;2023-07-29T05:05:27;98186.72;;;19.73;95.52
46506;BME280;32220;49.808;9.968;2023-07-29T05:07:58;98194.09;;;19.71;95.01
46506;BME280;32220;49.808;9.968;2023-07-29T05:10:25;98203.50;;;19.84;95.01
46506;BME280;32220;49.808;9.968;2023-07-29T05:12:53;98201.31;;;19.87;94.77
46506;BME280;32220;49.808;9.968;2023-07-29T05:15:20;98208.19;;;19.90;94.62
46506;BME280;32220;49.808;9.968;2023-07-29T05:17:48;98208.69;;;19.93;94.40
46506;BME280;32220;49.808;9.968;2023-07-29T05:20:16;98202.81;;;19.98;94.44
46506;BME280;32220;49.808;9.968;2023-07-29T05:22:44;98212.22;;;20.02;94.32
46506;BME280;32220;49.808;9.968;2023-07-29T05:25:13;98206.47;;;20.05;94.46
46506;BME280;32220;49.808;9.968;2023-07-29T05:27:41;98211.50;;;20.08;94.56
46506;BME280;32220;49.808;9.968;2023-07-29T05:30:09;98209.50;;;20.10;94.38
46506;BME280;32220;49.808;9.968;2023-07-29T05:32:37;98215.72;;;20.11;94.53
46506;BME280;32220;49.808;9.968;2023-07-29T05:35:06;98229.00;;;20.12;94.48
46506;BME280;32220;49.808;9.968;2023-07-29T05:37:37;98231.50;;;20.14;94.34
46506;BME280;32220;49.808;9.968;2023-07-29T05:40:06;98219.75;;;20.15;94.35
46506;BME280;32220;49.808;9.968;2023-07-29T05:42:36;98217.91;;;20.15;94.59
46506;BME280;32220;49.808;9.968;2023-07-29T05:45:04;98226.59;;;20.17;94.27
46506;BME280;32220;49.808;9.968;2023-07-29T05:47:32;98234.50;;;20.19;94.32
46506;BME280;32220;49.808;9.968;2023-07-29T05:50:00;98234.34;;;20.20;94.46
46506;BME280;32220;49.808;9.968;2023-07-29T05:52:31;98222.94;;;20.10;94.27
46506;BME280;32220;49.808;9.968;2023-07-29T05:54:58;98237.84;;;20.21;93.93
46506;BME280;32220;49.808;9.968;2023-07-29T05:57:26;98245.75;;;20.22;94.53
46506;BME280;32220;49.808;9.968;2023-07-29T05:59:55;98248.13;;;20.25;94.23
46506;BME280;32220;49.808;9.968;2023-07-29T06:02:23;98258.50;;;20.28;93.97
46506;BME280;32220;49.808;9.968;2023-07-29T06:04:52;98255.16;;;20.26;93.61
46506;BME280;32220;49.808;9.968;2023-07-29T06:07:19;98258.84;;;20.33;93.32
46506;BME280;32220;49.808;9.968;2023-07-29T06:09:47;98264.91;;;20.35;93.31
46506;BME280;32220;49.808;9.968;2023-07-29T06:12:15;98269.97;;;20.38;93.51
46506;BME280;32220;49.808;9.968;2023-07-29T06:14:42;98276.34;;;20.37;93.38
46506;BME280;32220;49.808;9.968;2023-07-29T06:17:12;98271.28;;;20.34;93.56
46506;BME280;32220;49.808;9.968;2023-07-29T06:19:39;98275.81;;;20.34;93.86
46506;BME280;32220;49.808;9.968;2023-07-29T06:22:07;98274.50;;;20.38;93.69
46506;BME280;32220;49.808;9.968;2023-07-29T06:24:35;98275.97;;;20.40;93.63
46506;BME280;32220;49.808;9.968;2023-07-29T06:27:02;98275.81;;;20.42;93.66
46506;BME280;32220;49.808;9.968;2023-07-29T06:29:30;98257.16;;;20.32;93.56
46506;BME280;32220;49.808;9.968;2023-07-29T06:31:58;98246.75;;;20.29;93.81
46506;BME280;32220;49.808;9.968;2023-07-29T06:34:28;98259.84;;;20.40;93.89
46506;BME280;32220;49.808;9.968;2023-07-29T06:36:56;98205.94;;;20.18;93.60
46506;BME280;32220;49.808;9.968;2023-07-29T06:39:23;98242.31;;;20.53;93.43
46506;BME280;32220;49.808;9.968;2023-07-29T06:41:51;98232.91;;;20.57;93.15
46506;BME280;32220;49.808;9.968;2023-07-29T06:44:18;98190.59;;;20.34;93.32
46506;BME280;32220;49.808;9.968;2023-07-29T06:46:46;98247.38;;;20.56;93.37
46506;BME280;32220;49.808;9.968;2023-07-29T06:49:14;98234.47;;;20.51;93.76
46506;BME280;32220;49.808;9.968;2023-07-29T06:51:43;98235.97;;;20.46;94.18
46506;BME280;32220;49.808;9.968;2023-07-29T06:54:11;98267.06;;;20.40;94.64
46506;BME280;32220;49.808;9.968;2023-07-29T06:56:38;98254.16;;;20.35;95.28
46506;BME280;32220;49.808;9.968;2023-07-29T06:59:06;98248.09;;;20.33;95.70
46506;BME280;32220;49.808;9.968;2023-07-29T07:01:33;98238.88;;;20.36;95.45
46506;BME280;32220;49.808;9.968;2023-07-29T07:04:01;98244.38;;;20.34;95.96
46506;BME280;32220;49.808;9.968;2023-07-29T07:06:29;98242.41;;;20.36;96.10
46506;BME280;32220;49.808;9.968;2023-07-29T07:08:59;98270.59;;;20.40;96.02
46506;BME280;32220;49.808;9.968;2023-07-29T07:11:26;98279.72;;;20.39;96.64
46506;BME280;32220;49.808;9.968;2023-07-29T07:13:54;98277.66;;;20.41;96.39
46506;BME280;32220;49.808;9.968;2023-07-29T07:16:21;98261.91;;;20.38;96.36
46506;BME280;32220;49.808;9.968;2023-07-29T07:18:49;98247.25;;;20.33;96.31
46506;BME280;32220;49.808;9.968;2023-07-29T07:21:17;98267.25;;;20.30;96.35
46506;BME280;32220;49.808;9.968;2023-07-29T07:23:44;98257.66;;;20.28;96.83
46506;BME280;32220;49.808;9.968;2023-07-29T07:26:14;98239.69;;;20.28;96.62
46506;BME280;32220;49.808;9.968;2023-07-29T07:28:41;98239.69;;;20.28;96.47
46506;BME280;32220;49.808;9.968;2023-07-29T07:31:09;98246.75;;;20.29;97.67
46506;BME280;32220;49.808;9.968;2023-07-29T07:33:37;98236.31;;;20.34;97.34
46506;BME280;32220;49.808;9.968;2023-07-29T07:36:05;98229.91;;;20.52;96.96
46506;BME280;32220;49.808;9.968;2023-07-29T07:38:32;98233.19;;;20.70;97.17
46506;BME280;32220;49.808;9.968;2023-07-29T07:41:00;98229.25;;;20.89;96.69
46506;BME280;32220;49.808;9.968;2023-07-29T07:43:30;98215.59;;;21.21;96.02
46506;BME280;32220;49.808;9.968;2023-07-29T07:45:58;98213.22;;;21.49;95.23
46506;BME280;32220;49.808;9.968;2023-07-29T07:48:26;98223.63;;;21.52;94.90
46506;BME280;32220;49.808;9.968;2023-07-29T07:50:53;98228.56;;;21.48;94.86
46506;BME280;32220;49.808;9.968;2023-07-29T07:53:21;98218.38;;;21.36;94.73
46506;BME280;32220;49.808;9.968;2023-07-29T07:55:49;98218.00;;;21.39;94.95
46506;BME280;32220;49.808;9.968;2023-07-29T07:58:16;98216.13;;;21.39;95.15
46506;BME280;32220;49.808;9.968;2023-07-29T08:00:45;98220.81;;;21.45;95.13
46506;BME280;32220;49.808;9.968;2023-07-29T08:03:13;98221.06;;;21.59;94.99
46506;BME280;32220;49.808;9.968;2023-07-29T08:05:41;98236.94;;;21.91;95.06
46506;BME280;32220;49.808;9.968;2023-07-29T08:08:09;98222.50;;;22.21;94.07
46506;BME280;32220;49.808;9.968;2023-07-29T08:10:36;98216.06;;;22.67;93.39
46506;BME280;32220;49.808;9.968;2023-07-29T08:13:04;98220.34;;;23.26;91.30
46506;BME280;32220;49.808;9.968;2023-07-29T08:15:32;98234.19;;;24.64;86.95
46506;BME280;32220;49.808;9.968;2023-07-29T08:18:01;98244.44;;;24.76;84.43
46506;BME280;32220;49.808;9.968;2023-07-29T08:20:29;98241.03;;;24.60;83.32
46506;BME280;32220;49.808;9.968;2023-07-29T08:22:56;98240.97;;;24.47;82.83
46506;BME280;32220;49.808;9.968;2023-07-29T08:25:24;98237.63;;;24.45;83.14
46506;BME280;32220;49.808;9.968;2023-07-29T08:27:51;98239.06;;;24.41;83.37
46506;BME280;32220;49.808;9.968;2023-07-29T08:30:19;98235.13;;;24.44;82.39
46506;BME280;32220;49.808;9.968;2023-07-29T08:32:47;98258.88;;;24.48;81.30
46506;BME280;32220;49.808;9.968;2023-07-29T08:35:16;98256.38;;;24.19;81.47
46506;BME280;32220;49.808;9.968;2023-07-29T08:37:44;98270.06;;;23.89;82.64
46506;BME280;32220;49.808;9.968;2023-07-29T08:40:13;98273.09;;;23.58;83.43
46506;BME280;32220;49.808;9.968;2023-07-29T08:42:41;98271.84;;;23.25;83.42
46506;BME280;32220;49.808;9.968;2023-07-29T08:45:10;98278.56;;;22.93;84.74
46506;BME280;32220;49.808;9.968;2023-07-29T08:47:38;98287.84;;;22.76;85.32
46506;BME280;32220;49.808;9.968;2023-07-29T08:50:07;98275.06;;;22.40;87.17
46506;BME280;32220;49.808;9.968;2023-07-29T08:52:38;98258.56;;;22.06;88.78
46506;BME280;32220;49.808;9.968;2023-07-29T08:55:06;98243.47;;;21.97;90.11
46506;BME280;32220;49.808;9.968;2023-07-29T08:57:34;98246.59;;;22.08;90.75
46506;BME280;32220;49.808;9.968;2023-07-29T09:00:02;98237.75;;;22.29;90.93
46506;BME280;32220;49.808;9.968;2023-07-29T09:02:32;98256.66;;;22.88;90.38
46506;BME280;32220;49.808;9.968;2023-07-29T09:05:01;98255.88;;;23.45;90.06
46506;BME280;32220;49.808;9.968;2023-07-29T09:07:29;98268.50;;;24.02;89.32
46506;BME280;32220;49.808;9.968;2023-07-29T09:09:58;98259.69;;;24.42;86.79
46506;BME280;32220;49.808;9.968;2023-07-29T09:12:26;98261.06;;;24.59;85.93
46506;BME280;32220;49.808;9.968;2023-07-29T09:14:54;98257.59;;;24.72;84.19
46506;BME280;32220;49.808;9.968;2023-07-29T09:17:21;98263.22;;;24.77;82.89
46506;BME280;32220;49.808;9.968;2023-07-29T09:19:50;98261.50;;;24.69;82.58
46506;BME280;32220;49.808;9.968;2023-07-29T09:22:18;98256.88;;;24.63;83.58
46506;BME280;32220;49.808;9.968;2023-07-29T09:24:47;98253.97;;;24.58;84.29
46506;BME280;32220;49.808;9.968;2023-07-29T09:27:25;98252.94;;;24.59;85.18
46506;BME280;32220;49.808;9.968;2023-07-29T09:29:53;98256.47;;;24.60;84.87
46506;BME280;32220;49.808;9.968;2023-07-29T09:32:23;98255.97;;;24.50;81.23
46506;BME280;32220;49.808;9.968;2023-07-29T09:34:50;98245.28;;;24.35;81.36
46506;BME280;32220;49.808;9.968;2023-07-29T09:37:21;98246.91;;;24.36;80.98
46506;BME280;32220;49.808;9.968;2023-07-29T09:39:49;98204.88;;;24.06;79.10
46506;BME280;32220;49.808;9.968;2023-07-29T09:42:18;98247.47;;;24.25;76.78
46506;BME280;32220;49.808;9.968;2023-07-29T09:44:49;98255.50;;;24.40;75.56
46506;BME280;32220;49.808;9.968;2023-07-29T09:47:21;98258.63;;;24.78;74.65
46506;BME280;32220;49.808;9.968;2023-07-29T09:49:49;98257.38;;;25.95;72.76
46506;BME280;32220;49.808;9.968;2023-07-29T09:52:18;98253.56;;;26.56;70.68
46506;BME280;32220;49.808;9.968;2023-07-29T09:54:46;98250.41;;;27.23;66.79
46506;BME280;32220;49.808;9.968;2023-07-29T09:57:16;98269.00;;;28.70;63.99
46506;BME280;32220;49.808;9.968;2023-07-29T09:59:55;98290.81;;;29.61;59.15
46506;BME280;32220;49.808;9.968;2023-07-29T10:02:23;98297.59;;;29.71;58.78
46506;BME280;32220;49.808;9.968;2023-07-29T10:04:54;98292.13;;;29.71;60.07
46506;BME280;32220;49.808;9.968;2023-07-29T10:07:22;98285.19;;;29.86;60.23
46506;BME280;32220;49.808;9.968;2023-07-29T10:09:51;98300.16;;;30.49;56.89
46506;BME280;32220;49.808;9.968;2023-07-29T10:12:20;98301.72;;;30.91;56.18
46506;BME280;32220;49.808;9.968;2023-07-29T10:14:49;98304.03;;;31.74;54.60
46506;BME280;32220;49.808;9.968;2023-07-29T10:17:20;98306.66;;;32.26;52.42
46506;BME280;32220;49.808;9.968;2023-07-29T10:19:48;98325.59;;;33.82;49.33
46506;BME280;32220;49.808;9.968;2023-07-29T10:22:20;98344.75;;;34.94;45.29
46506;BME280;32220;49.808;9.968;2023-07-29T10:24:49;98323.41;;;34.11;46.96
46506;BME280;32220;49.808;9.968;2023-07-29T10:27:19;98315.91;;;33.14;47.48
46506;BME280;32220;49.808;9.968;2023-07-29T10:29:49;98294.19;;;32.35;49.53
46506;BME280;32220;49.808;9.968;2023-07-29T10:32:19;98277.50;;;31.92;50.31
46506;BME280;32220;49.808;9.968;2023-07-29T10:34:48;98286.34;;;32.10;51.36
46506;BME280;32220;49.808;9.968;2023-07-29T10:37:16;98291.44;;;32.35;49.55
46506;BME280;32220;49.808;9.968;2023-07-29T10:39:52;98250.81;;;32.32;51.58
46506;BME280;32220;49.808;9.968;2023-07-29T10:42:20;98280.69;;;32.84;50.63
46506;BME280;32220;49.808;9.968;2023-07-29T10:44:49;98281.94;;;33.64;46.95
46506;BME280;32220;49.808;9.968;2023-07-29T10:47:21;98300.72;;;34.94;44.62
46506;BME280;32220;49.808;9.968;2023-07-29T10:49:51;98287.19;;;34.83;44.66
46506;BME280;32220;49.808;9.968;2023-07-29T10:52:37;98269.84;;;34.45;46.34
46506;BME280;32220;49.808;9.968;2023-07-29T10:55:24;98265.13;;;34.09;47.33
46506;BME280;32220;49.808;9.968;2023-07-29T10:57:53;98276.97;;;34.14;45.81
46506;BME280;32220;49.808;9.968;2023-07-29T11:00:31;98282.31;;;33.94;46.14
46506;BME280;32220;49.808;9.968;2023-07-29T11:03:02;98277.81;;;33.83;45.36
46506;BME280;32220;49.808;9.968;2023-07-29T11:05:47;98288.84;;;33.66;45.96
46506;BME280;32220;49.808;9.968;2023-07-29T11:08:22;98248.69;;;33.11;46.97
46506;BME280;32220;49.808;9.968;2023-07-29T11:10:59;98279.34;;;32.87;46.25
46506;BME280;32220;49.808;9.968;2023-07-29T11:13:28;98261.88;;;32.37;47.16
46506;BME280;32220;49.808;9.968;2023-07-29T11:15:57;98242.00;;;32.47;48.96
46506;BME280;32220;49.808;9.968;2023-07-29T11:18:29;98244.13;;;32.62;48.94
46506;BME280;32220;49.808;9.968;2023-07-29T11:20:58;98270.31;;;32.53;46.40
46506;BME280;32220;49.808;9.968;2023-07-29T11:23:30;98284.53;;;32.50;45.48
46506;BME280;32220;49.808;9.968;2023-07-29T11:25:58;98262.44;;;32.73;46.85
46506;BME280;32220;49.808;9.968;2023-07-29T11:28:26;98275.13;;;32.12;46.85
46506;BME280;32220;49.808;9.968;2023-07-29T11:30:55;98277.97;;;31.72;47.07
46506;BME280;32220;49.808;9.968;2023-07-29T11:33:24;98265.13;;;31.32;48.57
46506;BME280;32220;49.808;9.968;2023-07-29T11:35:53;98254.91;;;30.88;48.97
46506;BME280;32220;49.808;9.968;2023-07-29T11:38:22;98259.44;;;30.59;49.77
46506;BME280;32220;49.808;9.968;2023-07-29T11:40:55;98250.75;;;30.39;51.06
46506;BME280;32220;49.808;9.968;2023-07-29T11:43:22;98246.56;;;30.48;49.29
46506;BME280;32220;49.808;9.968;2023-07-29T11:45:51;98241.47;;;30.86;50.37
46506;BME280;32220;49.808;9.968;2023-07-29T11:48:18;98243.34;;;31.37;50.06
46506;BME280;32220;49.808;9.968;2023-07-29T11:50:46;98243.81;;;31.74;47.49
46506;BME280;32220;49.808;9.968;2023-07-29T11:53:15;98253.47;;;32.27;46.83
46506;BME280;32220;49.808;9.968;2023-07-29T11:55:43;98250.66;;;32.22;48.22
46506;BME280;32220;49.808;9.968;2023-07-29T11:58:10;98238.03;;;32.21;47.36
46506;BME280;32220;49.808;9.968;2023-07-29T12:00:39;98252.78;;;31.87;46.35
46506;BME280;32220;49.808;9.968;2023-07-29T12:03:07;98238.72;;;31.38;46.66
46506;BME280;32220;49.808;9.968;2023-07-29T12:05:37;98223.72;;;31.00;48.60
46506;BME280;32220;49.808;9.968;2023-07-29T12:08:04;98210.53;;;31.54;49.18
46506;BME280;32220;49.808;9.968;2023-07-29T12:10:34;98226.38;;;31.97;46.51
46506;BME280;32220;49.808;9.968;2023-07-29T12:13:02;98209.13;;;31.97;47.14
46506;BME280;32220;49.808;9.968;2023-07-29T12:15:30;98227.00;;;33.85;44.33
46506;BME280;32220;49.808;9.968;2023-07-29T12:17:59;98230.88;;;36.34;40.78
46506;BME280;32220;49.808;9.968;2023-07-29T12:20:29;98246.84;;;38.59;37.52
46506;BME280;32220;49.808;9.968;2023-07-29T12:22:58;98261.19;;;40.18;34.43
46506;BME280;32220;49.808;9.968;2023-07-29T12:25:28;98258.47;;;39.94;33.60
46506;BME280;32220;49.808;9.968;2023-07-29T12:28:02;98269.81;;;38.31;34.95
46506;BME280;32220;49.808;9.968;2023-07-29T12:30:30;98252.91;;;36.59;36.89
46506;BME280;32220;49.808;9.968;2023-07-29T12:32:58;98253.41;;;34.98;36.21
46506;BME280;32220;49.808;9.968;2023-07-29T12:35:34;98248.06;;;33.53;39.32
46506;BME280;32220;49.808;9.968;2023-07-29T12:38:02;98246.34;;;32.26;41.52
46506;BME280;32220;49.808;9.968;2023-07-29T12:40:29;98203.69;;;30.71;47.52
46506;BME280;32220;49.808;9.968;2023-07-29T12:42:59;98179.22;;;29.42;50.82
46506;BME280;32220;49.808;9.968;2023-07-29T12:45:26;98171.25;;;28.80;54.01
46506;BME280;32220;49.808;9.968;2023-07-29T12:47:55;98170.00;;;28.40;56.90
46506;BME280;32220;49.808;9.968;2023-07-29T12:50:23;98158.75;;;28.11;57.92
46506;BME280;32220;49.808;9.968;2023-07-29T12:52:50;98157.50;;;27.89;58.91
46506;BME280;32220;49.808;9.968;2023-07-29T12:55:18;98141.59;;;27.68;59.86
46506;BME280;32220;49.808;9.968;2023-07-29T12:57:46;98139.38;;;27.51;60.74
46506;BME280;32220;49.808;9.968;2023-07-29T13:00:15;98157.66;;;27.44;60.07
46506;BME280;32220;49.808;9.968;2023-07-29T13:02:43;98164.22;;;27.30;59.94
46506;BME280;32220;49.808;9.968;2023-07-29T13:05:11;98169.34;;;27.13;60.27
46506;BME280;32220;49.808;9.968;2023-07-29T13:07:39;98176.56;;;26.95;59.37
46506;BME280;32220;49.808;9.968;2023-07-29T13:10:08;98173.06;;;26.74;59.75